createdAt,value
2022-09-14T00:01:35.000Z,4.65
2022-09-14T00:04:00.783Z,4.75
2022-09-14T00:06:24.043Z,4.70
2022-09-14T00:08:51.397Z,4.60
2022-09-14T00:11:15.229Z,4.50
2022-09-14T00:13:39.888Z,4.50
2022-09-14T00:16:08.166Z,4.72
2022-09-14T00:18:31.714Z,4.22
2022-09-14T00:20:59.647Z,4.10
2022-09-14T00:23:22.142Z,4.60
2022-09-14T00:25:44.718Z,4.80
2022-09-14T00:28:07.269Z,4.80
2022-09-14T00:30:29.836Z,4.30
2022-09-14T00:32:52.404Z,4.47
2022-09-14T00:35:14.945Z,4.60
2022-09-14T00:37:37.639Z,4.50
2022-09-14T00:40:00.267Z,4.40
2022-09-14T00:42:22.915Z,4.45
2022-09-14T00:44:48.191Z,4.47
2022-09-14T00:47:12.622Z,4.30
2022-09-14T00:49:38.476Z,4.40
2022-09-14T00:52:09.840Z,4.53
2022-09-14T00:54:33.444Z,4.15
2022-09-14T00:56:59.350Z,5.15
2022-09-14T00:59:29.104Z,4.60
2022-09-14T01:01:52.160Z,4.43
2022-09-14T01:04:14.876Z,4.47
2022-09-14T01:06:48.240Z,4.70
2022-09-14T01:09:22.588Z,4.70
2022-09-14T01:12:03.253Z,4.72
2022-09-14T01:14:51.818Z,4.80
2022-09-14T01:17:23.112Z,4.25
2022-09-14T01:20:05.604Z,4.45
2022-09-14T01:22:40.284Z,4.82
2022-09-14T01:25:32.236Z,4.65
2022-09-14T01:28:00.326Z,4.50
2022-09-14T01:30:23.863Z,4.97
2022-09-14T01:32:52.646Z,4.40
2022-09-14T01:35:37.679Z,4.40
2022-09-14T01:38:08.624Z,4.57
2022-09-14T01:40:39.424Z,4.35
2022-09-14T01:43:10.821Z,4.72
2022-09-14T01:45:34.867Z,4.53
2022-09-14T01:48:03.163Z,4.78
2022-09-14T01:50:31.855Z,4.80
2022-09-14T01:53:23.686Z,5.00
2022-09-14T01:56:07.998Z,4.43
2022-09-14T01:58:40.079Z,4.95
2022-09-14T02:01:05.958Z,4.57
2022-09-14T02:03:43.927Z,5.00
2022-09-14T02:06:14.251Z,4.60
2022-09-14T02:08:37.475Z,4.43
2022-09-14T02:11:00.703Z,4.68
2022-09-14T02:13:24.137Z,4.57
2022-09-14T02:15:46.777Z,4.25
2022-09-14T02:18:09.264Z,5.20
2022-09-14T02:20:39.413Z,4.55
2022-09-14T02:23:02.099Z,4.53
2022-09-14T02:25:24.910Z,4.60
2022-09-14T02:27:49.101Z,4.43
2022-09-14T02:30:11.939Z,4.38
2022-09-14T02:32:52.212Z,4.28
2022-09-14T02:35:27.771Z,4.15
2022-09-14T02:38:16.662Z,4.00
2022-09-14T02:40:46.642Z,5.05
2022-09-14T02:43:09.202Z,4.28
2022-09-14T02:45:31.946Z,4.18
2022-09-14T02:48:18.900Z,4.20
2022-09-14T02:50:57.616Z,4.22
2022-09-14T02:53:43.614Z,4.40
2022-09-14T02:56:09.804Z,5.05
2022-09-14T02:58:37.500Z,4.47
2022-09-14T03:01:00.034Z,4.40
2022-09-14T03:03:22.544Z,5.10
2022-09-14T03:05:45.291Z,4.57
2022-09-14T03:08:10.339Z,4.43
2022-09-14T03:10:33.638Z,4.85
2022-09-14T03:12:56.238Z,4.53
2022-09-14T03:15:18.990Z,4.65
2022-09-14T03:17:46.135Z,4.63
2022-09-14T03:20:09.157Z,4.53
2022-09-14T03:22:32.962Z,4.50
2022-09-14T03:24:55.548Z,4.38
2022-09-14T03:27:18.147Z,4.70
2022-09-14T03:29:40.918Z,4.72
2022-09-14T03:32:03.508Z,4.90
2022-09-14T03:34:26.194Z,4.57
2022-09-14T03:36:48.768Z,4.80
2022-09-14T03:39:12.512Z,5.18
2022-09-14T03:41:35.013Z,4.82
2022-09-14T03:43:57.566Z,4.32
2022-09-14T03:46:23.507Z,4.90
2022-09-14T03:48:46.226Z,4.30
2022-09-14T03:51:10.283Z,4.90
2022-09-14T03:53:33.676Z,4.32
2022-09-14T03:55:56.240Z,4.60
2022-09-14T03:58:19.103Z,4.57
2022-09-14T04:00:41.672Z,4.47
2022-09-14T04:03:04.463Z,4.60
2022-09-14T04:05:26.999Z,4.20
2022-09-14T04:07:49.589Z,4.60
2022-09-14T04:10:12.098Z,4.47
2022-09-14T04:12:38.597Z,4.18
2022-09-14T04:15:01.020Z,4.45
2022-09-14T04:17:25.135Z,4.05
2022-09-14T04:19:47.697Z,4.30
2022-09-14T04:22:10.309Z,4.30
2022-09-14T04:24:32.763Z,4.85
2022-09-14T04:26:55.353Z,4.88
2022-09-14T04:29:18.109Z,5.13
2022-09-14T04:31:41.171Z,4.63
2022-09-14T04:34:03.758Z,4.55
2022-09-14T04:36:29.543Z,4.53
2022-09-14T04:38:54.258Z,4.55
2022-09-14T04:41:20.560Z,4.70
2022-09-14T04:43:44.677Z,4.75
2022-09-14T04:46:10.863Z,4.13
2022-09-14T04:48:35.300Z,4.03
2022-09-14T04:51:07.739Z,4.43
2022-09-14T04:53:30.553Z,4.40
2022-09-14T04:55:53.083Z,4.43
2022-09-14T04:58:15.916Z,4.38
2022-09-14T05:00:39.639Z,4.60
2022-09-14T05:03:03.751Z,4.80
2022-09-14T05:05:26.453Z,4.22
2022-09-14T05:07:49.195Z,4.72
2022-09-14T05:10:12.051Z,4.32
2022-09-14T05:12:34.576Z,4.50
2022-09-14T05:14:57.164Z,4.68
2022-09-14T05:17:19.744Z,4.63
2022-09-14T05:19:42.382Z,4.70
2022-09-14T05:22:04.926Z,5.05
2022-09-14T05:24:27.721Z,4.35
2022-09-14T05:26:52.533Z,4.93
2022-09-14T05:29:17.355Z,4.63
2022-09-14T05:31:40.401Z,4.88
2022-09-14T05:34:03.131Z,4.55
2022-09-14T05:36:26.218Z,4.70
2022-09-14T05:38:49.067Z,5.10
2022-09-14T05:41:13.985Z,4.93
2022-09-14T05:43:37.223Z,5.10
2022-09-14T05:46:04.795Z,4.82
2022-09-14T05:48:27.884Z,4.60
2022-09-14T05:50:58.593Z,5.47
2022-09-14T05:53:21.401Z,4.80
2022-09-14T05:55:44.169Z,4.57
2022-09-14T05:58:07.031Z,5.00
2022-09-14T06:00:29.925Z,4.47
2022-09-14T06:02:55.210Z,4.75
2022-09-14T06:05:18.694Z,4.82
2022-09-14T06:07:41.873Z,4.60
2022-09-14T06:10:04.733Z,5.47
2022-09-14T06:12:28.116Z,4.93
2022-09-14T06:14:50.756Z,4.70
2022-09-14T06:17:14.842Z,5.45
2022-09-14T06:19:38.491Z,5.00
2022-09-14T06:22:01.114Z,5.07
2022-09-14T06:24:23.756Z,4.80
2022-09-14T06:26:46.332Z,4.65
2022-09-14T06:29:09.093Z,5.13
2022-09-14T06:31:31.847Z,4.88
2022-09-14T06:33:54.967Z,5.22
2022-09-14T06:36:19.949Z,4.90
2022-09-14T06:38:42.919Z,4.88
2022-09-14T06:41:09.049Z,8.15
2022-09-14T06:43:33.914Z,5.85
2022-09-14T06:46:08.352Z,4.88
2022-09-14T06:48:34.634Z,4.60
2022-09-14T06:50:57.469Z,5.50
2022-09-14T06:53:20.808Z,5.00
2022-09-14T06:56:23.085Z,7.60
2022-09-14T06:58:47.911Z,5.25
2022-09-14T07:01:14.455Z,5.10
2022-09-14T07:03:38.777Z,5.55
2022-09-14T07:06:06.546Z,5.25
2022-09-14T07:08:29.512Z,5.90
2022-09-14T07:10:58.941Z,5.43
2022-09-14T07:13:21.774Z,5.38
2022-09-14T07:16:05.361Z,5.45
2022-09-14T07:18:32.915Z,5.70
2022-09-14T07:20:55.937Z,5.75
2022-09-14T07:23:18.623Z,5.88
2022-09-14T07:25:42.387Z,5.85
2022-09-14T07:28:04.955Z,5.80
2022-09-14T07:30:28.325Z,5.82
2022-09-14T07:32:51.154Z,5.57
2022-09-14T07:35:13.740Z,5.70
2022-09-14T07:37:36.501Z,6.10
2022-09-14T07:39:59.200Z,6.20
2022-09-14T07:42:21.879Z,6.80
2022-09-14T07:44:44.713Z,7.60
2022-09-14T07:47:07.522Z,7.38
2022-09-14T07:49:30.567Z,6.68
2022-09-14T07:51:54.119Z,6.53
2022-09-14T07:54:19.830Z,6.95
2022-09-14T07:56:43.807Z,7.10
2022-09-14T07:59:31.336Z,6.97
2022-09-14T08:01:50.397Z,6.72
2022-09-14T08:04:13.282Z,6.30
2022-09-14T08:06:37.248Z,6.53
2022-09-14T08:08:59.874Z,6.20
2022-09-14T08:11:25.198Z,6.93
2022-09-14T08:13:56.865Z,6.55
2022-09-14T08:16:21.188Z,6.07
2022-09-14T08:18:43.868Z,6.50
2022-09-14T08:21:09.689Z,6.30
2022-09-14T08:23:33.117Z,6.05
2022-09-14T08:25:55.688Z,6.22
2022-09-14T08:28:18.168Z,6.30
2022-09-14T08:30:41.443Z,6.85
2022-09-14T08:33:04.075Z,6.10
2022-09-14T08:35:53.656Z,5.93
2022-09-14T08:38:09.718Z,5.55
2022-09-14T08:40:33.396Z,5.95
2022-09-14T08:42:59.224Z,6.00
2022-09-14T08:45:24.183Z,5.50
2022-09-14T08:47:48.702Z,5.40
2022-09-14T08:50:20.286Z,5.20
2022-09-14T08:52:53.683Z,6.07
2022-09-14T08:55:41.550Z,6.25
2022-09-14T08:58:10.124Z,5.60
2022-09-14T09:00:55.506Z,5.70
2022-09-14T09:03:23.949Z,5.53
2022-09-14T09:06:01.122Z,5.72
2022-09-14T09:08:39.457Z,5.70
2022-09-14T09:11:05.707Z,5.72
2022-09-14T09:13:35.826Z,5.75
2022-09-14T09:16:02.946Z,5.60
2022-09-14T09:18:44.134Z,5.78
2022-09-14T09:21:20.236Z,5.38
2022-09-14T09:23:44.192Z,5.40
2022-09-14T09:26:09.729Z,6.63
2022-09-14T09:28:34.048Z,5.18
2022-09-14T09:31:05.274Z,5.13
2022-09-14T09:33:50.597Z,5.15
2022-09-14T09:36:18.578Z,5.63
2022-09-14T09:38:41.966Z,5.53
2022-09-14T09:41:13.251Z,5.55
2022-09-14T09:43:59.070Z,4.40
2022-09-14T09:46:22.508Z,4.28
2022-09-14T09:48:45.889Z,4.75
2022-09-14T09:51:19.808Z,4.40
2022-09-14T09:54:09.899Z,5.00
2022-09-14T09:56:36.562Z,4.57
2022-09-14T09:58:59.434Z,4.70
2022-09-14T10:01:31.388Z,4.57
2022-09-14T10:04:09.201Z,3.92
2022-09-14T10:06:32.916Z,4.50
2022-09-14T10:08:57.528Z,4.17
2022-09-14T10:11:38.019Z,4.22
2022-09-14T10:14:01.706Z,4.28
2022-09-14T10:16:30.760Z,4.53
2022-09-14T10:18:54.291Z,5.03
2022-09-14T10:21:22.245Z,5.13
2022-09-14T10:23:45.303Z,5.20
2022-09-14T10:26:10.604Z,5.15
2022-09-14T10:28:34.154Z,5.05
2022-09-14T10:31:08.707Z,5.00
2022-09-14T10:33:32.591Z,4.60
2022-09-14T10:36:02.182Z,4.65
2022-09-14T10:39:07.825Z,4.43
2022-09-14T10:42:00.485Z,4.35
2022-09-14T10:44:44.722Z,4.25
2022-09-14T10:47:10.252Z,4.50
2022-09-14T10:49:41.676Z,4.10
2022-09-14T10:52:20.344Z,3.70
2022-09-14T10:55:10.565Z,4.05
2022-09-14T10:57:41.037Z,3.80
2022-09-14T11:00:13.273Z,3.90
2022-09-14T11:02:54.093Z,3.42
2022-09-14T11:05:29.568Z,3.33
2022-09-14T11:08:04.948Z,3.38
2022-09-14T11:10:56.451Z,3.22
2022-09-14T11:13:51.512Z,3.30
2022-09-14T11:17:02.056Z,3.15
2022-09-14T11:19:53.144Z,3.67
2022-09-14T11:22:36.878Z,3.47
2022-09-14T11:25:06.357Z,3.47
2022-09-14T11:27:52.123Z,3.17
2022-09-14T11:30:46.915Z,3.17
2022-09-14T11:33:31.546Z,3.40
2022-09-14T11:36:01.961Z,3.28
2022-09-14T11:38:31.004Z,3.75
2022-09-14T11:40:57.539Z,3.67
2022-09-14T11:43:43.966Z,3.50
2022-09-14T11:46:11.856Z,3.40
2022-09-14T11:48:43.370Z,2.83
2022-09-14T11:51:08.531Z,3.63
2022-09-14T11:53:32.781Z,4.10
2022-09-14T11:55:55.676Z,3.20
2022-09-14T11:58:21.926Z,3.50
2022-09-14T12:01:05.175Z,3.72
2022-09-14T12:03:52.263Z,3.20
2022-09-14T12:06:30.138Z,3.00
2022-09-14T12:08:52.938Z,2.80
2022-09-14T12:11:17.194Z,2.90
2022-09-14T12:13:40.045Z,3.50
2022-09-14T12:16:09.791Z,2.90
2022-09-14T12:18:35.990Z,3.13
2022-09-14T12:21:18.377Z,3.50
2022-09-14T12:23:42.035Z,3.50
2022-09-14T12:26:10.772Z,3.17
2022-09-14T12:28:36.203Z,3.30
2022-09-14T12:30:58.748Z,3.80
2022-09-14T12:33:36.299Z,3.20
2022-09-14T12:36:20.866Z,3.00
2022-09-14T12:39:19.017Z,3.33
2022-09-14T12:41:41.567Z,3.15
2022-09-14T12:44:25.136Z,2.80
2022-09-14T12:46:47.990Z,3.30
2022-09-14T12:49:37.141Z,3.40
2022-09-14T12:52:08.943Z,3.03
2022-09-14T12:54:34.094Z,3.63
2022-09-14T12:57:15.486Z,3.30
2022-09-14T13:00:13.587Z,3.70
2022-09-14T13:03:00.651Z,3.10
2022-09-14T13:05:27.583Z,3.85
2022-09-14T13:07:51.108Z,3.50
2022-09-14T13:10:39.937Z,3.47
2022-09-14T13:13:08.578Z,2.95
2022-09-14T13:15:36.885Z,3.10
2022-09-14T13:18:01.015Z,3.35
2022-09-14T13:20:23.725Z,3.17
2022-09-14T13:22:46.328Z,3.40
2022-09-14T13:25:36.269Z,3.50
2022-09-14T13:28:14.195Z,2.90
2022-09-14T13:30:36.906Z,3.22
2022-09-14T13:33:00.245Z,3.20
2022-09-14T13:35:30.145Z,3.20
2022-09-14T13:37:53.602Z,3.33
2022-09-14T13:40:17.074Z,3.58
2022-09-14T13:42:41.282Z,3.40
2022-09-14T13:45:05.879Z,3.25
2022-09-14T13:47:29.038Z,3.33
2022-09-14T13:49:54.458Z,3.30
2022-09-14T13:52:25.878Z,3.47
2022-09-14T13:55:28.338Z,3.28
2022-09-14T13:58:09.254Z,3.28
2022-09-14T14:00:33.355Z,3.57
2022-09-14T14:03:02.176Z,3.47
2022-09-14T14:05:31.431Z,3.17
2022-09-14T14:07:56.599Z,3.30
2022-09-14T14:10:30.127Z,3.20
2022-09-14T14:12:52.761Z,3.30
2022-09-14T14:15:18.269Z,3.50
2022-09-14T14:17:41.573Z,3.20
2022-09-14T14:20:32.612Z,3.40
2022-09-14T14:23:13.197Z,3.38
2022-09-14T14:25:43.373Z,3.87
2022-09-14T14:28:34.365Z,3.95
2022-09-14T14:31:07.713Z,3.40
2022-09-14T14:33:31.284Z,3.60
2022-09-14T14:35:56.469Z,3.40
2022-09-14T14:38:19.100Z,3.40
2022-09-14T14:40:42.996Z,3.70
2022-09-14T14:43:07.653Z,3.50
2022-09-14T14:45:35.406Z,4.18
2022-09-14T14:48:00.013Z,3.80
2022-09-14T14:50:26.184Z,4.83
2022-09-14T14:52:50.282Z,3.40
2022-09-14T14:55:13.003Z,3.70
2022-09-14T14:57:35.749Z,3.40
2022-09-14T14:59:58.512Z,3.47
2022-09-14T15:02:21.331Z,3.70
2022-09-14T15:04:43.820Z,3.78
2022-09-14T15:07:06.562Z,3.80
2022-09-14T15:09:30.140Z,3.75
2022-09-14T15:11:54.732Z,3.63
2022-09-14T15:14:20.198Z,4.00
2022-09-14T15:16:44.387Z,3.85
2022-09-14T15:19:07.327Z,3.80
2022-09-14T15:21:30.152Z,3.38
2022-09-14T15:23:52.688Z,4.00
2022-09-14T15:26:15.395Z,3.80
2022-09-14T15:28:38.803Z,3.70
2022-09-14T15:31:04.860Z,3.65
2022-09-14T15:33:29.637Z,3.60
2022-09-14T15:35:56.711Z,3.90
2022-09-14T15:38:19.183Z,3.67
2022-09-14T15:40:41.871Z,3.80
2022-09-14T15:43:04.355Z,3.85
2022-09-14T15:45:26.857Z,4.38
2022-09-14T15:47:49.296Z,3.80
2022-09-14T15:50:11.886Z,3.40
2022-09-14T15:52:36.213Z,4.13
2022-09-14T15:54:58.895Z,3.85
2022-09-14T15:57:21.524Z,3.90
2022-09-14T15:59:44.130Z,3.97
2022-09-14T16:02:07.205Z,3.87
2022-09-14T16:04:36.514Z,4.20
2022-09-14T16:06:58.958Z,3.90
2022-09-14T16:09:22.483Z,4.43
2022-09-14T16:11:44.986Z,3.70
2022-09-14T16:14:09.419Z,3.80
2022-09-14T16:16:32.631Z,3.80
2022-09-14T16:18:55.219Z,3.90
2022-09-14T16:21:23.622Z,3.70
2022-09-14T16:23:50.137Z,4.13
2022-09-14T16:26:22.171Z,4.10
2022-09-14T16:28:47.981Z,4.10
2022-09-14T16:31:16.338Z,3.50
2022-09-14T16:33:44.214Z,4.07
2022-09-14T16:36:09.480Z,3.70
2022-09-14T16:38:32.112Z,3.63
2022-09-14T16:40:59.568Z,3.72
2022-09-14T16:43:22.577Z,3.75
2022-09-14T16:45:45.328Z,3.65
2022-09-14T16:48:07.994Z,3.92
2022-09-14T16:50:30.585Z,3.60
2022-09-14T16:52:53.130Z,3.75
2022-09-14T16:55:15.793Z,3.90
2022-09-14T16:57:38.594Z,3.78
2022-09-14T17:00:01.402Z,3.85
2022-09-14T17:02:24.216Z,3.70
2022-09-14T17:04:46.888Z,4.65
2022-09-14T17:07:10.354Z,4.47
2022-09-14T17:09:33.116Z,4.35
2022-09-14T17:11:57.179Z,4.80
2022-09-14T17:14:22.643Z,4.73
2022-09-14T17:16:45.607Z,4.95
2022-09-14T17:19:08.393Z,4.80
2022-09-14T17:21:36.449Z,5.00
2022-09-14T17:23:59.375Z,4.65
2022-09-14T17:26:23.177Z,5.00
2022-09-14T17:28:49.410Z,4.80
2022-09-14T17:31:14.632Z,4.93
2022-09-14T17:33:37.226Z,4.95
2022-09-14T17:36:00.396Z,6.38
2022-09-14T17:38:26.556Z,5.72
2022-09-14T17:40:49.486Z,5.57
2022-09-14T17:43:12.338Z,5.50
2022-09-14T17:45:50.640Z,5.60
2022-09-14T17:48:13.278Z,5.72
2022-09-14T17:50:39.131Z,5.30
2022-09-14T17:53:01.697Z,5.95
2022-09-14T17:55:24.738Z,5.60
2022-09-14T17:58:28.616Z,5.47
2022-09-14T18:00:51.278Z,6.03
2022-09-14T18:03:13.892Z,5.90
2022-09-14T18:05:36.924Z,5.70
2022-09-14T18:07:59.554Z,6.00
2022-09-14T18:10:22.293Z,6.35
2022-09-14T18:12:46.186Z,5.85
2022-09-14T18:15:09.640Z,5.90
2022-09-14T18:17:32.344Z,5.97
2022-09-14T18:19:58.535Z,5.80
2022-09-14T18:22:21.268Z,6.68
2022-09-14T18:24:44.213Z,6.60
2022-09-14T18:27:06.814Z,7.07
2022-09-14T18:29:31.553Z,6.90
2022-09-14T18:31:54.332Z,7.30
2022-09-14T18:34:17.782Z,8.25
2022-09-14T18:36:40.360Z,8.00
2022-09-14T18:39:04.498Z,7.13
2022-09-14T18:41:29.685Z,7.50
2022-09-14T18:43:53.334Z,8.00
2022-09-14T18:46:18.025Z,7.90
2022-09-14T18:48:43.747Z,8.10
2022-09-14T18:51:06.713Z,7.68
2022-09-14T18:53:32.115Z,7.60
2022-09-14T18:55:54.768Z,7.55
2022-09-14T18:58:17.412Z,8.10
2022-09-14T19:00:45.674Z,7.55
2022-09-14T19:03:09.917Z,7.60
2022-09-14T19:05:33.889Z,7.47
2022-09-14T19:07:56.352Z,7.68
2022-09-14T19:10:19.398Z,8.13
2022-09-14T19:12:42.124Z,8.00
2022-09-14T19:15:05.117Z,7.55
2022-09-14T19:17:27.968Z,8.07
2022-09-14T19:19:50.448Z,8.50
2022-09-14T19:22:13.056Z,8.95
2022-09-14T19:24:35.633Z,8.18
2022-09-14T19:26:58.196Z,8.13
2022-09-14T19:29:23.388Z,7.90
2022-09-14T19:31:51.014Z,8.30
2022-09-14T19:34:13.563Z,8.35
2022-09-14T19:36:36.144Z,7.72
2022-09-14T19:39:01.864Z,8.13
2022-09-14T19:41:44.343Z,7.50
2022-09-14T19:44:26.740Z,7.43
2022-09-14T19:46:50.055Z,7.80
2022-09-14T19:49:21.751Z,7.20
2022-09-14T19:51:45.368Z,6.55
2022-09-14T19:54:09.243Z,6.25
2022-09-14T19:56:32.566Z,5.82
2022-09-14T19:58:57.896Z,5.82
2022-09-14T20:01:22.673Z,5.40
2022-09-14T20:03:46.255Z,5.35
2022-09-14T20:06:12.129Z,5.20
2022-09-14T20:08:36.265Z,5.47
2022-09-14T20:11:16.573Z,5.18
2022-09-14T20:13:41.866Z,5.28
2022-09-14T20:16:28.736Z,4.80
2022-09-14T20:18:52.883Z,4.65
2022-09-14T20:21:18.896Z,4.70
2022-09-14T20:23:57.972Z,4.80
2022-09-14T20:26:26.612Z,4.28
2022-09-14T20:28:49.896Z,4.55
2022-09-14T20:31:13.777Z,4.45
2022-09-14T20:33:37.212Z,4.43
2022-09-14T20:36:14.717Z,4.50
2022-09-14T20:38:42.669Z,4.03
2022-09-14T20:41:07.963Z,4.40
2022-09-14T20:43:32.377Z,4.35
2022-09-14T20:46:04.721Z,4.00
2022-09-14T20:48:27.990Z,4.40
2022-09-14T20:50:52.089Z,4.22
2022-09-14T20:53:14.710Z,4.10
2022-09-14T20:55:37.252Z,4.10
2022-09-14T20:57:59.909Z,4.10
2022-09-14T21:00:22.605Z,4.28
2022-09-14T21:02:50.705Z,4.07
2022-09-14T21:05:13.288Z,4.05
2022-09-14T21:07:35.906Z,4.25
2022-09-14T21:09:59.552Z,3.80
2022-09-14T21:12:22.397Z,3.78
2022-09-14T21:14:45.399Z,3.75
2022-09-14T21:17:08.131Z,3.63
2022-09-14T21:19:31.318Z,3.95
2022-09-14T21:21:54.309Z,3.35
2022-09-14T21:24:18.767Z,3.70
2022-09-14T21:26:42.950Z,3.72
2022-09-14T21:29:07.634Z,3.90
2022-09-14T21:31:30.421Z,3.20
2022-09-14T21:33:54.802Z,3.60
2022-09-14T21:36:30.735Z,3.72
2022-09-14T21:38:55.878Z,3.53
2022-09-14T21:41:19.476Z,3.53
2022-09-14T21:43:42.684Z,3.33
2022-09-14T21:46:06.252Z,3.67
2022-09-14T21:48:29.240Z,3.60
2022-09-14T21:51:01.619Z,3.33
2022-09-14T21:53:25.544Z,3.63
2022-09-14T21:55:49.361Z,3.45
2022-09-14T21:58:12.187Z,3.53
2022-09-14T22:00:35.206Z,3.33
2022-09-14T22:02:58.147Z,3.13
2022-09-14T22:05:21.215Z,3.30
2022-09-14T22:07:44.057Z,3.50
2022-09-14T22:10:08.104Z,3.28
2022-09-14T22:12:31.000Z,3.50
2022-09-14T22:14:53.483Z,2.90
2022-09-14T22:17:34.666Z,3.20
2022-09-14T22:20:00.660Z,3.40
2022-09-14T22:22:23.196Z,3.65
2022-09-14T22:24:45.737Z,3.17
2022-09-14T22:27:09.757Z,3.08
2022-09-14T22:29:32.894Z,3.40
2022-09-14T22:31:55.679Z,3.33
2022-09-14T22:34:18.640Z,3.65
2022-09-14T22:36:41.794Z,3.67
2022-09-14T22:39:05.241Z,3.55
2022-09-14T22:41:28.709Z,3.40
2022-09-14T22:43:52.308Z,3.72
2022-09-14T22:46:16.647Z,3.83
2022-09-14T22:48:40.111Z,3.60
2022-09-14T22:51:04.367Z,3.80
2022-09-14T22:53:28.697Z,3.88
2022-09-14T22:55:52.262Z,3.85
2022-09-14T22:58:17.265Z,3.70
2022-09-14T23:00:40.350Z,3.75
2022-09-14T23:03:03.196Z,3.70
2022-09-14T23:05:25.888Z,3.80
2022-09-14T23:07:48.935Z,3.55
2022-09-14T23:10:11.769Z,4.03
2022-09-14T23:12:34.503Z,4.00
2022-09-14T23:14:57.387Z,3.83
2022-09-14T23:17:20.147Z,3.75
2022-09-14T23:19:43.543Z,3.80
2022-09-14T23:22:06.758Z,3.92
2022-09-14T23:24:29.888Z,4.00
2022-09-14T23:26:53.063Z,4.03
2022-09-14T23:29:17.053Z,4.07
2022-09-14T23:31:39.980Z,4.18
2022-09-14T23:34:04.326Z,4.10
2022-09-14T23:36:28.825Z,4.28
2022-09-14T23:38:52.587Z,4.40
2022-09-14T23:41:17.280Z,4.35
2022-09-14T23:43:40.336Z,4.18
2022-09-14T23:46:03.706Z,4.43
2022-09-14T23:48:27.426Z,4.13
2022-09-14T23:51:00.984Z,4.63
2022-09-14T23:53:24.128Z,4.20
2022-09-14T23:55:46.855Z,4.57
2022-09-14T23:58:09.961Z,4.30
